Terminal Aerodrome Forecast
Issued by NWS Albany, NY

Home | Current Version | Previous Version | Text Only | Print | Product List | Glossary On
Versions: 1 2 3 4 5 6 7 8 9 10 11 12 13 14 15 16 17 18
000
FTUS41 KALY 010544
TAFPOU
TAF
KPOU 010544Z 0106/0206 00000KT P6SM FEW070
     FM011200 24005KT P6SM SCT050 SCT100
     FM011600 26008G16KT P6SM VCSH BKN050 BKN100
     FM012200 27008KT P6SM SCT050 SCT100
     FM020200 VRB03KT P6SM SCT050=

USA.gov is the U.S. government's official web portal to all federal, state and local government web resources and services.